Terminal Aerodrome Forecast
Issued by NWS

Home | Current Version | Previous Version | Text Only | Print | Product List | Glossary On
Versions: 1 2 3 4 5 6 7 8 9 10 11 12 13
518
FTUS45 KGGW 201131
TAFSDY
TAF
KSDY 201131Z 2012/2112 22007KT P6SM FEW120
     FM210900 VRB04KT 4SM BR FEW080=

USA.gov is the U.S. government's official web portal to all federal, state and local government web resources and services.